Time;durP1;ratioP1;P1;durP2;ratioP2;P2;SDS_P1;SDS_P2;PMS_P1;PMS_P2;Temp;Humidity;BMP_temperature;BMP_pressure;BME280_temperature;BME280_humidity;BME280_pressure;Samples;Min_cycle;Max_cycle;Signal;HPM_P1;HPM_P2
2022/01/03 00:00:43;;;;;;;166.18;62.70;;;5.30;99.90;;;;;;5096589;28;20020;-87
2022/01/03 00:03:11;;;;;;;172.20;65.00;;;5.30;99.90;;;;;;5096364;28;20052;-87
2022/01/03 00:05:37;;;;;;;154.00;57.88;;;5.20;99.90;;;;;;5096626;28;20032;-87
2022/01/03 00:08:05;;;;;;;150.15;60.72;;;5.20;99.90;;;;;;5096623;28;20031;-87
2022/01/03 00:10:33;;;;;;;128.43;51.28;;;5.20;99.90;;;;;;5096601;28;20033;-87
2022/01/03 00:13:00;;;;;;;132.80;49.67;;;5.10;99.90;;;;;;5096768;28;20046;-87
2022/01/03 00:15:26;;;;;;;160.43;61.10;;;5.20;99.90;;;;;;5096408;28;20089;-87
2022/01/03 00:17:53;;;;;;;140.63;55.40;;;5.30;99.90;;;;;;5096299;28;20020;-87
2022/01/03 00:20:20;;;;;;;127.63;52.08;;;5.30;99.90;;;;;;5096327;28;20048;-86
2022/01/03 00:22:56;;;;;;;178.23;66.00;;;5.40;99.90;;;;;;5095983;28;20498;-87
2022/01/03 00:25:25;;;;;;;155.40;58.28;;;5.40;99.90;;;;;;5095997;28;20016;-86
2022/01/03 00:28:04;;;;;;;145.45;54.53;;;5.50;99.90;;;;;;5096072;28;20031;-87
2022/01/03 00:30:37;;;;;;;139.27;52.00;;;5.50;99.90;;;;;;5096390;28;20020;-87
2022/01/03 00:33:05;;;;;;;143.38;53.55;;;5.50;99.90;;;;;;5095776;28;20039;-87
2022/01/03 00:35:37;;;;;;;140.73;54.35;;;5.50;99.90;;;;;;5096007;28;20103;-87
2022/01/03 00:38:03;;;;;;;123.63;49.67;;;5.50;99.90;;;;;;5097135;28;20051;-87
2022/01/03 00:40:30;;;;;;;152.07;56.03;;;5.50;99.90;;;;;;5095360;28;20016;-86
2022/01/03 00:42:55;;;;;;;184.70;69.43;;;5.60;99.90;;;;;;5095693;28;20031;-87
2022/01/03 00:45:21;;;;;;;182.95;69.65;;;5.50;99.90;;;;;;5095597;28;20024;-87
2022/01/03 00:47:47;;;;;;;180.63;69.05;;;5.40;99.90;;;;;;5095811;28;20024;-87
2022/01/03 00:50:17;;;;;;;165.98;63.50;;;5.30;99.90;;;;;;5095622;28;20398;-87
2022/01/03 00:52:44;;;;;;;198.35;74.68;;;5.10;99.90;;;;;;5095911;28;20073;-87
2022/01/03 00:55:11;;;;;;;182.40;70.50;;;5.00;99.90;;;;;;5095478;28;20016;-87
2022/01/03 00:58:03;;;;;;;175.45;66.72;;;4.90;99.90;;;;;;5095589;28;20111;-86
2022/01/03 01:00:31;;;;;;;147.13;56.17;;;4.80;99.90;;;;;;5095535;28;20016;-87
2022/01/03 01:03:10;;;;;;;145.77;53.15;;;4.80;99.90;;;;;;5095179;28;20048;-86
2022/01/03 01:05:48;;;;;;;143.13;54.38;;;4.80;99.90;;;;;;5095410;28;20031;-87
2022/01/03 01:08:26;;;;;;;152.32;56.28;;;4.80;99.90;;;;;;5095435;28;20111;-86
2022/01/03 01:10:55;;;;;;;151.07;57.75;;;4.90;99.90;;;;;;5095391;28;20051;-87
2022/01/03 01:13:22;;;;;;;128.40;50.03;;;4.80;99.90;;;;;;5095222;28;20118;-86
2022/01/03 01:15:48;;;;;;;136.05;54.70;;;4.80;99.90;;;;;;5095181;28;20020;-87
2022/01/03 01:18:14;;;;;;;152.20;57.80;;;4.90;99.90;;;;;;5095236;28;20424;-87
2022/01/03 01:20:41;;;;;;;151.95;57.60;;;4.80;99.90;;;;;;5095295;28;20085;-87
2022/01/03 01:23:10;;;;;;;138.02;54.03;;;4.70;99.90;;;;;;5095183;28;20054;-87
2022/01/03 01:28:08;;;;;;;176.27;64.50;;;4.70;99.90;;;;;;5116354;28;20474;-86
2022/01/03 01:30:34;;;;;;;177.43;66.07;;;4.80;99.90;;;;;;5114986;28;20031;-86
2022/01/03 01:33:07;;;;;;;156.15;59.28;;;4.60;99.90;;;;;;5114328;28;20471;-87
2022/01/03 01:35:39;;;;;;;156.52;63.40;;;4.40;99.90;;;;;;5114852;28;20026;-87
2022/01/03 01:38:09;;;;;;;154.77;60.58;;;4.50;99.90;;;;;;5114596;28;20022;-86
2022/01/03 01:40:49;;;;;;;176.68;65.95;;;4.50;99.90;;;;;;5114940;28;20035;-87
2022/01/03 01:43:19;;;;;;;173.57;64.95;;;4.70;99.90;;;;;;5114987;28;20488;-87
2022/01/03 01:45:48;;;;;;;170.30;63.90;;;4.60;99.90;;;;;;5114933;28;20042;-87
2022/01/03 01:48:16;;;;;;;168.73;62.47;;;4.70;99.90;;;;;;5114913;28;20470;-87
2022/01/03 01:50:45;;;;;;;199.65;74.18;;;4.60;99.90;;;;;;5115148;28;20046;-87
2022/01/03 01:53:19;;;;;;;179.75;65.15;;;4.50;99.90;;;;;;5114865;28;20027;-87
2022/01/03 01:55:48;;;;;;;173.43;65.15;;;4.50;99.90;;;;;;5115001;28;20024;-86
2022/01/03 01:58:30;;;;;;;155.10;58.05;;;4.40;99.90;;;;;;5115086;28;20024;-87
2022/01/03 02:01:03;;;;;;;141.95;54.10;;;4.40;99.90;;;;;;5115170;28;20016;-86
2022/01/03 02:03:38;;;;;;;140.30;51.53;;;4.40;99.90;;;;;;5114870;28;20049;-87
2022/01/03 02:06:06;;;;;;;147.45;53.35;;;4.50;99.90;;;;;;5114513;28;20023;-86
2022/01/03 02:08:38;;;;;;;141.57;55.10;;;4.60;99.90;;;;;;5115160;28;20024;-87
2022/01/03 02:11:32;;;;;;;127.78;49.63;;;4.50;99.90;;;;;;5115084;28;20024;-87
2022/01/03 02:13:59;;;;;;;122.70;46.17;;;4.50;99.90;;;;;;5114905;28;20019;-87
2022/01/03 02:16:25;;;;;;;104.47;42.95;;;4.50;99.90;;;;;;5114692;28;20359;-86
2022/01/03 02:18:51;;;;;;;97.55;40.45;;;4.40;99.90;;;;;;5114905;28;20023;-86
2022/01/03 02:21:19;;;;;;;84.85;36.45;;;4.50;99.90;;;;;;5115058;28;20024;-86
2022/01/03 02:23:45;;;;;;;82.07;34.50;;;4.50;99.90;;;;;;5114575;28;20055;-87
2022/01/03 02:26:12;;;;;;;71.97;33.55;;;4.40;99.90;;;;;;5114601;28;20028;-87
2022/01/03 02:28:38;;;;;;;80.85;34.70;;;4.50;99.90;;;;;;5114909;28;20034;-86
2022/01/03 02:31:04;;;;;;;65.70;28.92;;;4.50;99.90;;;;;;5114712;28;20382;-87
2022/01/03 02:33:29;;;;;;;85.20;34.03;;;4.60;99.90;;;;;;5114680;28;20020;-86
2022/01/03 02:35:56;;;;;;;78.10;33.42;;;4.50;99.90;;;;;;5113999;28;20019;-87
2022/01/03 02:38:22;;;;;;;85.53;35.97;;;4.50;99.90;;;;;;5114543;28;20030;-87
2022/01/03 02:40:48;;;;;;;90.57;36.28;;;4.50;99.90;;;;;;5114774;28;20020;-87
2022/01/03 02:43:14;;;;;;;100.18;42.00;;;4.50;99.90;;;;;;5114464;28;20141;-87
2022/01/03 02:45:40;;;;;;;106.03;40.75;;;4.50;99.90;;;;;;5115951;28;20143;-87
2022/01/03 02:48:07;;;;;;;100.95;41.47;;;4.40;99.90;;;;;;5118591;28;20024;-87
2022/01/03 02:50:34;;;;;;;103.80;41.97;;;4.40;99.90;;;;;;5118590;28;20024;-87
2022/01/03 02:53:01;;;;;;;94.78;38.15;;;4.30;99.90;;;;;;5118132;28;20039;-87
2022/01/03 02:55:27;;;;;;;84.57;36.63;;;4.20;99.90;;;;;;5118298;28;20456;-87
2022/01/03 02:57:59;;;;;;;91.00;37.38;;;4.20;99.90;;;;;;5118774;28;20020;-86
2022/01/03 03:00:30;;;;;;;79.25;34.75;;;4.20;99.90;;;;;;5118298;28;20111;-86
2022/01/03 03:02:56;;;;;;;89.45;34.53;;;4.30;99.90;;;;;;5117842;28;20225;-87
2022/01/03 03:05:22;;;;;;;75.10;31.27;;;4.30;99.90;;;;;;5118146;28;20047;-87
2022/01/03 03:07:49;;;;;;;77.18;32.80;;;4.30;99.90;;;;;;5118194;28;20024;-86
2022/01/03 03:10:18;;;;;;;78.63;32.22;;;4.30;99.90;;;;;;5118192;28;20117;-86
2022/01/03 03:12:45;;;;;;;82.50;32.88;;;4.30;99.90;;;;;;5117326;27;20024;-86
2022/01/03 03:15:13;;;;;;;88.60;36.78;;;4.30;99.90;;;;;;5117887;28;20022;-87
2022/01/03 03:17:41;;;;;;;86.50;35.83;;;4.40;99.90;;;;;;5118125;28;20110;-87
2022/01/03 03:20:08;;;;;;;72.20;31.65;;;4.40;99.90;;;;;;5117825;28;20023;-86
2022/01/03 03:22:35;;;;;;;81.07;33.03;;;4.30;99.90;;;;;;5117773;28;20084;-86
2022/01/03 03:25:05;;;;;;;82.80;34.42;;;4.40;99.90;;;;;;5117718;28;20385;-87
2022/01/03 03:27:31;;;;;;;70.93;31.40;;;4.30;99.90;;;;;;5117677;28;20115;-86
2022/01/03 03:29:57;;;;;;;82.07;35.75;;;4.30;99.90;;;;;;5117619;28;20019;-87
2022/01/03 03:32:25;;;;;;;75.82;33.33;;;4.20;99.90;;;;;;5117578;28;20023;-87
2022/01/03 07:49:27;;;;;;;173.75;68.55;;;2.50;99.90;;;;;;5134640;27;20401;-87
2022/01/03 07:51:53;;;;;;;173.98;71.57;;;2.40;99.90;;;;;;5132689;28;20024;-87
2022/01/03 07:54:19;;;;;;;168.45;68.15;;;2.60;99.90;;;;;;5115516;28;20061;-87
2022/01/03 07:56:45;;;;;;;153.90;65.88;;;2.90;99.90;;;;;;5115244;28;20032;-87
2022/01/03 07:59:11;;;;;;;148.60;63.65;;;3.10;99.90;;;;;;5115376;28;20020;-88
2022/01/03 08:01:40;;;;;;;187.52;77.20;;;3.40;99.90;;;;;;5114905;28;20438;-88
2022/01/03 08:04:06;;;;;;;182.50;76.43;;;3.60;99.90;;;;;;5115462;28;20015;-88
2022/01/03 08:06:32;;;;;;;188.13;80.28;;;3.80;99.90;;;;;;5115263;28;20031;-87
2022/01/03 08:08:58;;;;;;;197.23;81.03;;;4.00;99.90;;;;;;5115107;28;20019;-88
2022/01/03 08:11:26;;;;;;;259.40;108.35;;;4.20;99.90;;;;;;5114966;28;20042;-88
2022/01/03 08:13:53;;;;;;;259.20;111.57;;;4.30;99.90;;;;;;5115044;28;20111;-88
2022/01/03 08:16:20;;;;;;;228.98;99.88;;;4.30;99.90;;;;;;5114975;28;20088;-88
2022/01/03 08:18:45;;;;;;;169.32;76.30;;;4.40;99.90;;;;;;5114817;28;20027;-88
2022/01/03 08:21:13;;;;;;;168.57;75.53;;;4.50;99.90;;;;;;5114661;28;20020;-88
2022/01/03 08:23:39;;;;;;;155.05;67.15;;;4.70;99.90;;;;;;5115140;28;20110;-88
2022/01/03 08:26:06;;;;;;;163.25;73.32;;;4.80;99.90;;;;;;5114853;28;20099;-88
2022/01/03 08:28:31;;;;;;;183.98;78.30;;;4.80;99.90;;;;;;5114877;28;20024;-88
2022/01/03 08:30:57;;;;;;;188.07;77.93;;;4.90;99.90;;;;;;5114833;28;20023;-87
2022/01/03 08:33:23;;;;;;;207.18;88.55;;;5.00;99.90;;;;;;5114577;28;20047;-88
2022/01/03 08:35:49;;;;;;;221.85;95.32;;;5.10;99.90;;;;;;5132269;28;20051;-88
2022/01/03 08:38:15;;;;;;;176.85;74.57;;;5.20;99.90;;;;;;5114744;28;20055;-88
2022/01/03 08:40:41;;;;;;;230.68;97.07;;;5.40;99.90;;;;;;5114543;28;20089;-88
2022/01/03 08:43:06;;;;;;;346.75;129.48;;;5.60;99.90;;;;;;5114642;28;20032;-88
2022/01/03 08:45:32;;;;;;;310.95;123.22;;;5.80;99.90;;;;;;5114419;28;20496;-88
2022/01/03 08:47:58;;;;;;;234.70;99.43;;;5.90;99.90;;;;;;5114064;28;20052;-88
2022/01/03 08:50:24;;;;;;;222.02;101.10;;;6.00;99.90;;;;;;5114409;28;20019;-88
2022/01/03 08:52:50;;;;;;;220.55;96.97;;;6.00;99.90;;;;;;5114459;28;20114;-88
2022/01/03 08:55:17;;;;;;;197.98;89.28;;;6.00;99.90;;;;;;5114290;28;20016;-87
2022/01/03 08:57:44;;;;;;;196.13;89.20;;;6.20;99.90;;;;;;5114208;28;20534;-88
2022/01/03 09:00:10;;;;;;;216.85;94.00;;;6.30;99.90;;;;;;5104215;28;20482;-88
2022/01/03 09:02:36;;;;;;;235.15;103.07;;;6.40;99.90;;;;;;5100962;28;20023;-88
2022/01/03 09:05:03;;;;;;;372.17;156.45;;;6.60;99.90;;;;;;5100551;28;20381;-88
2022/01/03 09:07:28;;;;;;;422.17;191.00;;;6.70;99.90;;;;;;5100204;28;20031;-87
2022/01/03 09:09:54;;;;;;;376.55;154.63;;;6.80;99.90;;;;;;5100428;28;20481;-88
2022/01/03 09:12:20;;;;;;;352.13;148.05;;;6.80;99.90;;;;;;5100413;28;20105;-88
2022/01/03 09:14:46;;;;;;;315.48;133.48;;;6.80;99.90;;;;;;5100561;28;20053;-88
2022/01/03 09:17:12;;;;;;;300.77;129.20;;;6.90;99.90;;;;;;5100182;28;20047;-88
2022/01/03 09:19:38;;;;;;;292.30;123.18;;;7.00;99.90;;;;;;5100265;28;20043;-88
2022/01/03 09:22:17;;;;;;;273.33;119.20;;;7.10;99.90;;;;;;5100075;28;20031;-88
2022/01/03 09:30:27;;;;;;;184.25;85.15;;;7.50;99.90;;;;;;5118754;28;20030;-88
2022/01/03 09:32:56;;;;;;;181.32;79.95;;;7.80;99.90;;;;;;5100030;28;20119;-88
2022/01/03 09:35:22;;;;;;;172.00;80.35;;;7.90;99.90;;;;;;5099950;28;20022;-88
2022/01/03 09:37:48;;;;;;;167.60;77.13;;;8.10;99.90;;;;;;5099850;28;20118;-88
2022/01/03 09:40:15;;;;;;;161.88;75.43;;;8.30;99.90;;;;;;5100024;28;20045;-88
2022/01/03 09:42:47;;;;;;;150.15;71.30;;;8.40;99.90;;;;;;5099818;28;20054;-88
2022/01/03 09:45:15;;;;;;;157.75;71.80;;;8.50;99.90;;;;;;5099593;28;20505;-88
2022/01/03 09:47:44;;;;;;;146.13;69.53;;;8.50;99.90;;;;;;5099292;28;20105;-88
2022/01/03 09:50:14;;;;;;;151.60;68.82;;;8.50;99.90;;;;;;5099929;28;20077;-88
2022/01/03 09:52:42;;;;;;;158.30;75.38;;;8.60;99.90;;;;;;5099584;28;20024;-88
2022/01/03 09:55:10;;;;;;;168.32;78.57;;;8.70;99.90;;;;;;5099405;28;20036;-88
2022/01/03 09:57:36;;;;;;;166.57;78.80;;;8.80;99.90;;;;;;5099666;28;20035;-89
2022/01/03 10:00:04;;;;;;;169.18;79.75;;;8.80;99.90;;;;;;5099512;28;20077;-87
2022/01/03 10:02:30;;;;;;;155.70;76.15;;;8.80;99.90;;;;;;5098747;28;20077;-88
2022/01/03 10:04:55;;;;;;;171.18;81.60;;;8.90;99.90;;;;;;5099090;28;20023;-88
2022/01/03 10:07:24;;;;;;;178.98;87.57;;;8.90;99.90;;;;;;5098833;28;20027;-88
2022/01/03 10:09:51;;;;;;;185.60;92.47;;;9.00;99.90;;;;;;5099420;28;20028;-88
2022/01/03 10:12:18;;;;;;;187.82;91.85;;;9.10;99.90;;;;;;5098719;28;20030;-88
2022/01/03 10:14:44;;;;;;;184.93;90.43;;;9.20;99.90;;;;;;5098845;28;20053;-88
2022/01/03 10:17:11;;;;;;;190.10;91.63;;;9.30;99.90;;;;;;5098982;28;20024;-87
2022/01/03 10:19:56;;;;;;;193.98;92.15;;;9.40;99.90;;;;;;5099056;28;20491;-88
2022/01/03 10:22:30;;;;;;;198.43;91.05;;;9.60;99.90;;;;;;5099331;28;20024;-88
2022/01/03 10:24:59;;;;;;;256.13;109.03;;;9.70;99.90;;;;;;5098748;28;20077;-88
2022/01/03 10:27:51;;;;;;;256.60;110.10;;;9.80;99.90;;;;;;5099405;28;20369;-88
2022/01/03 10:30:38;;;;;;;260.17;115.75;;;9.80;99.90;;;;;;5098680;28;20377;-88
2022/01/03 10:33:12;;;;;;;253.18;112.95;;;9.90;99.90;;;;;;5098417;28;20529;-88
2022/01/03 10:35:44;;;;;;;221.88;100.28;;;10.00;99.90;;;;;;5098575;28;20069;-88
2022/01/03 10:38:11;;;;;;;206.70;95.22;;;10.20;99.90;;;;;;5099165;28;20035;-88
2022/01/03 10:40:38;;;;;;;195.20;89.47;;;10.30;99.90;;;;;;5098453;28;20035;-88
2022/01/03 10:43:17;;;;;;;183.38;83.78;;;10.40;99.90;;;;;;5098612;28;20448;-88
2022/01/03 10:45:43;;;;;;;173.20;81.13;;;10.50;99.90;;;;;;5098589;28;20016;-88
2022/01/03 10:48:28;;;;;;;163.32;74.88;;;10.60;99.90;;;;;;5098281;28;20141;-88
2022/01/03 10:50:56;;;;;;;186.77;86.78;;;10.70;99.90;;;;;;5098508;28;20023;-88
2022/01/03 10:53:39;;;;;;;176.93;84.32;;;10.80;99.90;;;;;;5098503;28;20030;-88
2022/01/03 10:56:32;;;;;;;159.07;73.15;;;10.70;99.90;;;;;;5098270;28;20080;-88
2022/01/03 10:59:02;;;;;;;155.98;73.80;;;10.80;99.90;;;;;;5098221;28;20026;-88
2022/01/03 11:01:31;;;;;;;190.32;86.72;;;10.90;99.90;;;;;;5097931;28;20107;-88
2022/01/03 11:04:01;;;;;;;193.98;90.22;;;11.10;99.90;;;;;;5098301;28;20482;-88
2022/01/03 11:11:42;;;;;;;215.32;100.00;;;11.50;99.90;;;;;;5116312;28;20077;-88
2022/01/03 11:14:09;;;;;;;210.38;99.13;;;11.70;99.90;;;;;;5098007;28;20027;-88
2022/01/03 11:16:42;;;;;;;189.95;92.32;;;11.80;99.70;;;;;;5097686;28;20039;-88
2022/01/03 11:19:09;;;;;;;199.63;96.68;;;12.00;99.90;;;;;;5097752;28;20119;-88
2022/01/03 11:21:44;;;;;;;223.55;101.93;;;12.20;99.60;;;;;;5097883;28;20019;-86
2022/01/03 11:24:12;;;;;;;215.82;104.25;;;12.30;99.50;;;;;;5097670;28;20015;-86
2022/01/03 11:26:49;;;;;;;221.90;101.68;;;12.50;99.40;;;;;;5097169;28;20474;-88
2022/01/03 11:29:16;;;;;;;208.57;100.57;;;12.70;98.70;;;;;;5096911;28;20035;-88
2022/01/03 11:31:43;;;;;;;212.75;102.50;;;12.90;99.00;;;;;;5097680;28;20521;-88
2022/01/03 11:34:10;;;;;;;251.43;120.07;;;12.90;98.00;;;;;;5097922;28;20020;-88
2022/01/03 11:36:38;;;;;;;261.98;127.55;;;12.90;97.80;;;;;;5097626;28;20108;-88
2022/01/03 11:39:09;;;;;;;245.10;119.35;;;12.90;97.30;;;;;;5097994;28;20599;-88
2022/01/03 11:41:41;;;;;;;221.90;107.47;;;12.70;97.90;;;;;;5097610;28;20057;-88
2022/01/03 11:44:10;;;;;;;227.88;107.78;;;12.60;96.90;;;;;;5097946;28;20016;-88
2022/01/03 11:46:36;;;;;;;229.07;111.15;;;12.50;96.90;;;;;;5097430;28;20023;-88
2022/01/03 11:49:02;;;;;;;231.30;113.07;;;12.40;97.70;;;;;;5097557;28;20048;-88
2022/01/03 11:51:31;;;;;;;243.02;115.85;;;12.40;98.00;;;;;;5097514;28;20089;-88
2022/01/03 11:53:58;;;;;;;256.58;122.15;;;12.40;98.60;;;;;;5097615;28;20111;-88
2022/01/03 11:56:25;;;;;;;219.70;108.70;;;12.40;98.20;;;;;;5097507;28;20024;-88
2022/01/03 11:59:20;;;;;;;216.05;109.57;;;12.30;97.90;;;;;;5097335;28;20020;-88
2022/01/03 12:04:36;;;;;;;186.90;91.45;;;12.20;98.50;;;;;;5116284;28;20523;-86
2022/01/03 12:07:14;;;;;;;180.38;90.70;;;12.30;98.40;;;;;;5097469;28;20020;-86
2022/01/03 12:09:54;;;;;;;188.95;95.32;;;12.40;98.10;;;;;;5097536;28;20020;-86
2022/01/03 12:12:30;;;;;;;194.82;96.93;;;12.50;98.80;;;;;;5097508;28;20024;-86
2022/01/03 12:14:59;;;;;;;248.52;110.90;;;12.60;98.90;;;;;;5097091;28;20085;-86
2022/01/03 12:17:42;;;;;;;225.77;108.18;;;12.50;98.70;;;;;;5097090;28;20470;-86
2022/01/03 12:20:09;;;;;;;222.18;105.53;;;12.50;98.50;;;;;;5097420;28;20045;-86
2022/01/03 12:22:49;;;;;;;234.45;111.88;;;12.50;99.20;;;;;;5097218;28;20067;-86
2022/01/03 12:25:30;;;;;;;242.02;113.68;;;12.40;98.90;;;;;;5097018;28;20024;-86
2022/01/03 12:27:57;;;;;;;237.45;111.43;;;12.40;99.20;;;;;;5097209;28;20024;-86
2022/01/03 12:30:33;;;;;;;228.75;108.38;;;12.30;99.30;;;;;;5097146;28;20076;-86
2022/01/03 12:33:06;;;;;;;228.65;108.75;;;12.30;99.60;;;;;;5097140;28;20024;-86
2022/01/03 12:35:34;;;;;;;214.45;102.55;;;12.30;99.50;;;;;;5100746;28;20030;-86
2022/01/03 12:38:02;;;;;;;225.55;109.80;;;12.40;99.50;;;;;;5100853;28;20031;-86
2022/01/03 12:40:34;;;;;;;229.90;109.45;;;12.50;99.40;;;;;;5100826;28;20030;-86
2022/01/03 12:43:05;;;;;;;247.05;114.35;;;12.50;99.30;;;;;;5100788;28;20473;-86
2022/01/03 12:45:34;;;;;;;223.40;107.60;;;12.60;99.20;;;;;;5100341;28;20031;-86
2022/01/03 12:50:51;;;;;;;240.68;112.78;;;12.80;99.30;;;;;;5119044;28;20043;-86
2022/01/03 12:53:29;;;;;;;246.77;116.55;;;12.70;98.60;;;;;;5100285;28;20043;-87
2022/01/03 12:56:03;;;;;;;263.77;126.32;;;12.80;98.80;;;;;;5101130;28;20156;-86
2022/01/03 12:58:29;;;;;;;286.80;133.07;;;12.80;98.70;;;;;;5100987;28;20115;-86
2022/01/03 13:00:58;;;;;;;282.42;132.35;;;12.80;98.90;;;;;;5100838;28;20054;-87
2022/01/03 13:03:33;;;;;;;295.83;133.70;;;12.80;98.60;;;;;;5100705;28;20020;-86
2022/01/03 13:06:05;;;;;;;;;;;12.60;98.90;;;;;;5100825;28;20023;-86
2022/01/03 13:08:36;;;;;;;273.15;124.68;;;12.50;98.80;;;;;;5100378;28;20018;-86
2022/01/03 13:11:13;;;;;;;247.95;112.68;;;12.50;98.90;;;;;;5118473;28;20025;-86
2022/01/03 13:13:41;;;;;;;237.35;112.50;;;12.50;98.80;;;;;;5100360;28;20381;-86
2022/01/03 13:16:25;;;;;;;220.48;106.07;;;12.50;99.10;;;;;;5100218;28;20529;-86
2022/01/03 13:18:55;;;;;;;271.67;118.18;;;12.50;99.30;;;;;;5100207;28;20026;-86
2022/01/03 13:21:23;;;;;;;243.13;112.45;;;12.60;98.70;;;;;;5100092;28;20428;-86
2022/01/03 13:23:59;;;;;;;237.60;109.88;;;12.40;98.80;;;;;;5100222;28;20055;-86
2022/01/03 13:26:26;;;;;;;;;;;12.50;99.00;;;;;;5100335;28;20144;-86
2022/01/03 13:28:54;;;;;;;280.60;123.50;;;12.50;99.10;;;;;;5099822;28;19904;-86
2022/01/03 13:31:20;;;;;;;250.68;113.75;;;12.40;99.10;;;;;;5100286;28;20032;-86
2022/01/03 13:33:56;;;;;;;290.92;129.88;;;12.40;99.10;;;;;;5100697;28;20024;-86
2022/01/03 13:36:35;;;;;;;300.30;129.40;;;12.50;98.90;;;;;;5099930;28;20076;-86
2022/01/03 13:39:05;;;;;;;301.02;131.10;;;12.80;99.10;;;;;;5099654;28;20027;-86
2022/01/03 13:41:35;;;;;;;322.45;134.38;;;13.00;98.60;;;;;;5099603;28;20031;-86
2022/01/03 13:44:01;;;;;;;308.90;135.13;;;13.20;99.00;;;;;;5099838;28;20019;-86
2022/01/03 13:49:21;;;;;;;280.63;123.70;;;13.20;97.90;;;;;;5117736;28;20058;-86
2022/01/03 13:51:56;;;;;;;288.98;131.25;;;13.40;98.20;;;;;;5099791;28;20264;-86
2022/01/03 13:54:26;;;;;;;273.10;129.18;;;13.40;97.70;;;;;;5099423;28;20027;-86
2022/01/03 13:56:53;;;;;;;267.55;127.55;;;13.40;98.00;;;;;;5099656;28;20020;-86
2022/01/03 13:59:21;;;;;;;296.30;134.80;;;13.50;97.70;;;;;;5099462;28;20057;-86
2022/01/03 14:01:48;;;;;;;360.63;163.23;;;13.70;97.60;;;;;;5099210;28;20478;-86
2022/01/03 14:04:15;;;;;;;380.63;166.73;;;13.80;97.10;;;;;;5098610;28;20024;-86
2022/01/03 14:06:41;;;;;;;348.98;155.00;;;13.90;96.90;;;;;;5099296;28;20031;-87
2022/01/03 14:09:16;;;;;;;357.92;156.23;;;13.90;97.40;;;;;;5099251;28;20486;-86
2022/01/03 14:11:43;;;;;;;377.23;168.25;;;13.80;96.60;;;;;;5099014;28;20522;-86
2022/01/03 14:14:14;;;;;;;402.00;184.95;;;13.70;96.60;;;;;;5099132;28;20389;-86
2022/01/03 14:16:59;;;;;;;423.42;193.57;;;13.70;96.60;;;;;;5100120;28;20361;-86
2022/01/03 14:19:28;;;;;;;462.17;214.32;;;13.60;97.40;;;;;;5098933;28;20096;-88
2022/01/03 14:21:55;;;;;;;418.17;187.05;;;13.60;97.20;;;;;;5099095;28;20024;-88
2022/01/03 14:24:24;;;;;;;392.08;175.23;;;13.50;97.60;;;;;;5098871;28;20019;-88
2022/01/03 14:26:58;;;;;;;400.45;181.18;;;13.60;97.80;;;;;;5098995;28;20034;-88
2022/01/03 14:33:03;;;;;;;456.27;214.32;;;13.70;98.50;;;;;;5103633;28;20024;-88
2022/01/03 14:35:47;;;;;;;436.38;197.23;;;13.70;98.10;;;;;;5098884;28;20034;-88
2022/01/03 14:38:14;;;;;;;424.27;190.88;;;13.60;98.30;;;;;;5098697;28;20420;-88
2022/01/03 14:40:52;;;;;;;439.45;202.15;;;13.50;97.50;;;;;;5098522;28;20022;-88
2022/01/03 14:43:24;;;;;;;454.02;217.35;;;13.40;97.90;;;;;;5098774;28;20092;-87
2022/01/03 14:45:54;;;;;;;441.40;221.02;;;13.20;97.90;;;;;;5098673;28;20020;-87
2022/01/03 14:48:22;;;;;;;527.95;290.20;;;12.90;98.50;;;;;;5094818;28;20052;-88
2022/01/03 14:50:49;;;;;;;533.55;291.45;;;12.70;99.00;;;;;;5095027;28;20031;-87
2022/01/03 14:53:15;;;;;;;524.72;285.80;;;12.50;99.10;;;;;;5094855;28;20036;-88
2022/01/03 14:55:43;;;;;;;543.72;282.88;;;12.40;99.40;;;;;;5094973;28;20023;-88
2022/01/03 14:58:17;;;;;;;518.70;266.63;;;12.40;99.80;;;;;;5094299;28;20024;-88
2022/01/03 15:00:43;;;;;;;479.13;244.50;;;12.30;99.60;;;;;;5094742;28;20020;-88
2022/01/03 15:03:09;;;;;;;473.85;239.38;;;12.10;99.90;;;;;;5094858;28;20073;-88
2022/01/03 15:05:35;;;;;;;508.75;254.23;;;12.10;99.80;;;;;;5094753;28;20058;-89
2022/01/03 15:08:02;;;;;;;545.53;273.58;;;12.00;99.90;;;;;;5094771;28;20061;-88
2022/01/03 15:10:30;;;;;;;506.95;252.88;;;11.90;99.90;;;;;;5094874;28;20020;-88
2022/01/03 15:12:55;;;;;;;482.70;231.48;;;11.80;99.90;;;;;;5094719;28;20027;-88
2022/01/03 15:15:23;;;;;;;478.00;233.57;;;11.70;99.90;;;;;;5094507;28;20060;-87
2022/01/03 15:17:49;;;;;;;531.70;259.98;;;11.60;99.90;;;;;;5094106;28;20125;-89
2022/01/03 15:20:15;;;;;;;496.40;238.75;;;11.60;99.90;;;;;;5094628;28;20056;-88
2022/01/03 15:22:42;;;;;;;483.02;229.75;;;11.60;99.90;;;;;;5094698;28;20020;-88
2022/01/03 15:25:09;;;;;;;507.50;242.23;;;11.50;99.90;;;;;;5094632;28;20056;-88
2022/01/03 15:27:36;;;;;;;557.35;274.30;;;11.40;99.90;;;;;;5094424;28;20028;-88
2022/01/03 15:30:04;;;;;;;533.85;255.35;;;11.20;99.90;;;;;;5094352;28;20024;-88
2022/01/03 15:32:30;;;;;;;521.63;246.90;;;11.20;99.90;;;;;;5094592;28;20060;-88
2022/01/03 15:34:55;;;;;;;497.05;230.07;;;11.10;99.90;;;;;;5094313;28;20398;-88
2022/01/03 15:37:21;;;;;;;491.65;225.07;;;11.00;99.90;;;;;;5094390;28;20052;-88
2022/01/03 15:39:50;;;;;;;481.30;217.57;;;10.90;99.90;;;;;;5094391;28;20024;-88
2022/01/03 15:42:16;;;;;;;490.95;225.80;;;10.80;99.90;;;;;;5094151;28;20119;-88
2022/01/03 15:44:42;;;;;;;514.65;236.73;;;10.80;99.90;;;;;;5094167;28;20451;-87
2022/01/03 15:47:08;;;;;;;492.27;224.30;;;10.80;99.90;;;;;;5095152;28;20051;-88
2022/01/03 15:49:35;;;;;;;474.25;211.73;;;10.80;99.90;;;;;;5097673;28;20016;-88
2022/01/03 15:52:01;;;;;;;454.15;197.63;;;10.70;99.90;;;;;;5096972;28;20386;-88
2022/01/03 15:54:28;;;;;;;533.63;233.18;;;10.60;99.90;;;;;;5097821;28;20038;-88
2022/01/03 15:56:54;;;;;;;517.08;222.38;;;10.60;99.90;;;;;;5097435;28;20020;-88
2022/01/03 15:59:20;;;;;;;466.40;201.50;;;10.50;99.90;;;;;;5097511;28;20028;-88
2022/01/03 16:01:46;;;;;;;467.50;199.07;;;10.30;99.90;;;;;;5097612;28;20580;-88
2022/01/03 16:04:13;;;;;;;445.40;186.93;;;10.30;99.90;;;;;;5097583;28;20044;-88
2022/01/03 16:06:39;;;;;;;444.80;187.20;;;10.30;99.90;;;;;;5115582;28;20018;-88
2022/01/03 16:09:05;;;;;;;470.73;198.27;;;10.20;99.90;;;;;;5097730;28;20118;-88
2022/01/03 16:11:31;;;;;;;479.23;206.07;;;10.20;99.90;;;;;;5101708;28;20381;-88
2022/01/03 16:13:58;;;;;;;423.35;179.48;;;10.10;99.90;;;;;;5101663;28;20401;-88
2022/01/03 16:16:24;;;;;;;464.45;199.13;;;10.10;99.90;;;;;;5101470;28;20024;-88
2022/01/03 16:18:50;;;;;;;543.03;243.10;;;10.10;99.90;;;;;;5101208;28;20067;-88
2022/01/03 16:21:16;;;;;;;518.75;229.52;;;10.00;99.90;;;;;;5101394;28;20027;-88
2022/01/03 16:23:42;;;;;;;491.08;220.40;;;9.90;99.90;;;;;;5101461;28;20023;-87
2022/01/03 16:26:09;;;;;;;492.88;215.90;;;9.70;99.90;;;;;;5100728;28;20389;-88
2022/01/03 16:28:36;;;;;;;473.48;204.40;;;9.70;99.90;;;;;;5101283;28;20110;-88
2022/01/03 16:31:03;;;;;;;499.45;218.73;;;9.60;99.90;;;;;;5101312;28;20032;-88
2022/01/03 16:33:28;;;;;;;466.92;195.43;;;9.60;99.90;;;;;;5101213;28;20019;-88
2022/01/03 16:35:54;;;;;;;436.73;185.32;;;9.60;99.90;;;;;;5119404;28;20024;-88
2022/01/03 16:38:20;;;;;;;453.58;194.77;;;9.60;99.90;;;;;;5101673;28;20114;-88
2022/01/03 16:40:48;;;;;;;478.42;212.18;;;9.50;99.90;;;;;;5100778;28;20024;-88
2022/01/03 16:43:15;;;;;;;482.98;219.98;;;9.50;99.90;;;;;;5100684;28;20065;-88
2022/01/03 16:45:41;;;;;;;471.00;205.07;;;9.40;99.90;;;;;;5100690;28;20019;-88
2022/01/03 16:48:07;;;;;;;453.50;199.27;;;9.40;99.90;;;;;;5097015;28;20473;-88
2022/01/03 16:50:36;;;;;;;428.15;185.10;;;9.30;99.90;;;;;;5097193;28;20052;-88
2022/01/03 16:53:05;;;;;;;402.38;173.00;;;9.30;99.90;;;;;;5097055;28;20077;-88
2022/01/03 16:55:31;;;;;;;441.55;192.70;;;9.20;99.90;;;;;;5097095;28;20025;-88
2022/01/03 16:57:58;;;;;;;433.90;186.88;;;9.20;99.90;;;;;;5096879;28;20031;-88
2022/01/03 17:00:23;;;;;;;411.73;172.15;;;9.10;99.90;;;;;;5097007;28;20023;-87
2022/01/03 17:02:50;;;;;;;435.88;191.73;;;9.10;99.90;;;;;;5096231;28;20462;-88
2022/01/03 17:05:17;;;;;;;416.42;177.50;;;9.10;99.90;;;;;;5096771;28;20115;-88
2022/01/03 17:07:43;;;;;;;421.02;185.85;;;9.10;99.90;;;;;;5096982;28;20020;-88
2022/01/03 17:10:10;;;;;;;368.90;151.70;;;9.00;99.90;;;;;;5096857;28;20021;-88